createdAt,value
2018-05-04T00:01:36.248Z,93258.02
2018-05-04T00:04:03.801Z,93252.93
2018-05-04T00:06:31.534Z,93254.06
2018-05-04T00:08:59.069Z,93266.16
2018-05-04T00:11:26.618Z,93249.14
2018-05-04T00:13:54.213Z,93260.53
2018-05-04T00:16:21.751Z,93262.55
2018-05-04T00:18:49.320Z,93256.81
2018-05-04T00:21:16.888Z,93265.58
2018-05-04T00:23:44.435Z,93261.16
2018-05-04T00:26:11.995Z,93252.64
2018-05-04T00:28:39.572Z,93258.13
2018-05-04T00:31:07.115Z,93270.66
2018-05-04T00:33:34.667Z,93273.87
2018-05-04T00:36:02.231Z,93262.69
2018-05-04T00:38:29.774Z,93273.99
2018-05-04T00:40:57.337Z,93269.32
2018-05-04T00:43:25.135Z,93276.56
2018-05-04T00:45:52.645Z,93279.77
2018-05-04T00:48:20.183Z,93287.53
2018-05-04T00:50:48.227Z,93288.88
2018-05-04T00:53:15.770Z,93291.44
2018-05-04T00:55:43.307Z,93291.84
2018-05-04T00:58:11.174Z,93289.49
2018-05-04T01:00:38.707Z,93297.89
2018-05-04T01:03:06.256Z,93286.05
2018-05-04T01:05:33.835Z,93288.52
2018-05-04T01:08:01.404Z,93300.89
2018-05-04T01:10:28.943Z,93301.02
2018-05-04T01:12:56.662Z,93308.84
2018-05-04T01:15:24.216Z,93301.27
2018-05-04T01:17:51.765Z,93299.25
2018-05-04T01:20:19.440Z,93301.41
2018-05-04T01:22:46.989Z,93307.12
2018-05-04T01:25:14.536Z,93301.75
2018-05-04T01:27:42.115Z,93307.98
2018-05-04T01:30:09.665Z,93309.98
2018-05-04T01:32:37.221Z,93317.03
2018-05-04T01:35:04.947Z,93316.97
2018-05-04T01:37:32.502Z,93315.08
2018-05-04T01:40:00.076Z,93315.77
2018-05-04T01:42:27.628Z,93314.72
2018-05-04T01:44:55.190Z,93321.94
2018-05-04T01:47:22.744Z,93318.31
2018-05-04T01:49:50.317Z,93316.74
2018-05-04T01:52:17.869Z,93309.04
2018-05-04T01:54:45.412Z,93315.61
2018-05-04T01:57:12.989Z,93310.70
2018-05-04T01:59:40.528Z,93295.69
2018-05-04T02:02:08.070Z,93307.70
2018-05-04T02:04:35.697Z,93303.61
2018-05-04T02:07:03.251Z,93299.47
2018-05-04T02:09:30.795Z,93297.38
2018-05-04T02:11:58.355Z,93289.00
2018-05-04T02:14:25.919Z,93294.89
2018-05-04T02:16:53.619Z,93292.23
2018-05-04T02:19:21.180Z,93296.00
2018-05-04T02:21:48.715Z,93309.98
2018-05-04T02:24:16.277Z,93295.25
2018-05-04T02:26:43.826Z,93294.45
2018-05-04T02:29:11.364Z,93301.03
2018-05-04T02:31:39.059Z,93309.45
2018-05-04T02:34:06.596Z,93302.83
2018-05-04T02:36:34.143Z,93296.50
2018-05-04T02:39:01.720Z,93297.21
2018-05-04T02:41:29.269Z,93314.80
2018-05-04T02:43:56.837Z,93309.73
2018-05-04T02:46:24.496Z,93307.91
2018-05-04T02:48:52.033Z,93318.56
2018-05-04T02:51:19.589Z,93308.77
2018-05-04T02:53:47.196Z,93311.41
2018-05-04T02:56:14.733Z,93319.56
2018-05-04T02:58:42.285Z,93316.59
2018-05-04T03:01:09.863Z,93315.06
2018-05-04T03:03:37.437Z,93323.55
2018-05-04T03:06:04.987Z,93322.55
2018-05-04T03:08:32.560Z,93325.38
2018-05-04T03:11:00.110Z,93318.15
2018-05-04T03:13:27.670Z,93323.40
2018-05-04T03:15:55.284Z,93328.39
2018-05-04T03:18:22.837Z,93317.55
2018-05-04T03:20:50.377Z,93322.84
2018-05-04T03:23:17.954Z,93315.09
2018-05-04T03:25:45.505Z,93322.59
2018-05-04T03:28:13.056Z,93318.77
2018-05-04T03:30:40.775Z,93318.02
2018-05-04T03:33:08.325Z,93316.09
2018-05-04T03:35:35.878Z,93321.39
2018-05-04T03:38:03.448Z,93328.37
2018-05-04T03:40:31.004Z,93326.50
2018-05-04T03:42:58.629Z,93335.08
2018-05-04T03:45:26.259Z,93333.59
2018-05-04T03:47:53.823Z,93340.91
2018-05-04T03:50:21.388Z,93338.52
2018-05-04T03:52:49.068Z,93336.38
2018-05-04T03:55:16.617Z,93349.92
2018-05-04T03:57:55.759Z,93345.94
2018-05-04T04:00:34.999Z,93347.41
2018-05-04T04:03:14.415Z,93354.52
2018-05-04T04:05:41.960Z,93348.33
2018-05-04T04:08:09.513Z,93346.11
2018-05-04T04:10:37.077Z,93350.53
2018-05-04T04:13:04.626Z,93348.95
2018-05-04T04:15:32.203Z,93347.12
2018-05-04T04:17:59.817Z,93356.98
2018-05-04T04:20:27.319Z,93355.37
2018-05-04T04:22:54.897Z,93367.14
2018-05-04T04:25:22.443Z,93354.14
2018-05-04T04:27:50.912Z,93349.19
2018-05-04T04:30:18.632Z,93361.44
2018-05-04T04:32:46.182Z,93365.76
2018-05-04T04:35:13.720Z,93361.87
2018-05-04T04:37:41.301Z,93365.06
2018-05-04T04:40:08.851Z,93362.87
2018-05-04T04:42:36.445Z,93367.12
2018-05-04T04:45:04.136Z,93359.16
2018-05-04T04:47:31.686Z,93365.67
2018-05-04T04:49:59.230Z,93360.25
2018-05-04T04:52:27.004Z,93369.14
2018-05-04T04:54:54.540Z,93372.02
2018-05-04T04:57:22.081Z,93375.25
2018-05-04T04:59:49.653Z,93361.08
2018-05-04T05:02:17.191Z,93375.34
2018-05-04T05:04:44.756Z,93371.38
2018-05-04T05:07:12.332Z,93374.75
2018-05-04T05:09:39.881Z,93379.05
2018-05-04T05:12:07.441Z,93382.27
2018-05-04T05:14:35.014Z,93379.24
2018-05-04T05:17:02.570Z,93381.39
2018-05-04T05:19:30.123Z,93382.59
2018-05-04T05:21:57.865Z,93385.49
2018-05-04T05:24:25.411Z,93387.77
2018-05-04T05:26:52.956Z,93378.23
2018-05-04T05:29:20.634Z,93383.36
2018-05-04T05:31:48.183Z,93393.56
2018-05-04T05:34:15.733Z,93379.06
2018-05-04T05:36:43.541Z,93380.70
2018-05-04T05:39:11.101Z,93388.50
2018-05-04T05:41:38.663Z,93394.86
2018-05-04T05:44:06.232Z,93390.36
2018-05-04T05:46:33.776Z,93398.88
2018-05-04T05:49:01.341Z,93397.44
2018-05-04T05:51:28.953Z,93398.69
2018-05-04T05:53:56.520Z,93404.98
2018-05-04T05:56:24.081Z,93408.00
2018-05-04T05:58:51.995Z,93404.62
2018-05-04T06:01:19.552Z,93410.67
2018-05-04T06:03:47.104Z,93417.28
2018-05-04T06:06:15.019Z,93399.11
2018-05-04T06:08:42.562Z,93402.92
2018-05-04T06:11:10.119Z,93396.89
2018-05-04T06:13:37.848Z,93404.69
2018-05-04T06:16:05.408Z,93399.33
2018-05-04T06:18:32.947Z,93393.45
2018-05-04T06:21:00.523Z,93403.77
2018-05-04T06:23:28.065Z,93397.44
2018-05-04T06:25:55.603Z,93392.37
2018-05-04T06:28:23.194Z,93410.56
2018-05-04T06:30:50.746Z,93385.50
2018-05-04T06:33:18.330Z,93397.98
2018-05-04T06:35:45.912Z,93391.28
2018-05-04T06:38:13.451Z,93388.03
2018-05-04T06:40:41.004Z,93401.09
2018-05-04T06:43:08.919Z,93407.63
2018-05-04T06:45:36.454Z,93393.29
2018-05-04T06:48:04.009Z,93385.67
2018-05-04T06:50:31.598Z,93421.50
2018-05-04T06:52:59.148Z,93392.42
2018-05-04T06:55:26.700Z,93385.16
2018-05-04T06:57:54.317Z,93394.85
2018-05-04T07:00:21.863Z,93398.81
2018-05-04T07:02:49.432Z,93387.39
2018-05-04T07:05:17.162Z,93383.38
2018-05-04T07:07:44.727Z,93391.05
2018-05-04T07:10:12.278Z,93384.45
2018-05-04T07:12:39.833Z,93398.62
2018-05-04T07:15:07.408Z,93391.48
2018-05-04T07:17:35.156Z,93395.45
2018-05-04T07:20:02.704Z,93394.88
2018-05-04T07:22:30.248Z,93394.54
2018-05-04T07:24:57.824Z,93409.48
2018-05-04T07:27:25.378Z,93385.61
2018-05-04T07:29:52.928Z,93385.23
2018-05-04T07:32:20.507Z,93396.57
2018-05-04T07:34:48.049Z,93386.02
2018-05-04T07:37:15.609Z,93384.13
2018-05-04T07:39:43.309Z,93383.89
2018-05-04T07:42:10.867Z,93380.50
2018-05-04T07:44:38.445Z,93386.80
2018-05-04T07:47:06.044Z,93380.03
2018-05-04T07:49:33.624Z,93382.91
2018-05-04T07:52:01.167Z,93385.77
2018-05-04T07:54:28.912Z,93395.09
2018-05-04T07:56:56.480Z,93395.28
2018-05-04T07:59:24.035Z,93389.23
2018-05-04T08:01:51.739Z,93387.92
2018-05-04T08:04:19.303Z,93393.02
2018-05-04T08:06:46.874Z,93406.87
2018-05-04T08:09:14.461Z,93395.34
2018-05-04T08:11:42.025Z,93400.69
2018-05-04T08:14:09.581Z,93407.95
2018-05-04T08:16:37.174Z,93402.03
2018-05-04T08:19:04.739Z,93407.00
2018-05-04T08:21:32.279Z,93416.09
2018-05-04T08:23:59.970Z,93401.84
2018-05-04T08:26:27.522Z,93405.70
2018-05-04T08:28:55.106Z,93402.18
2018-05-04T08:31:22.691Z,93427.55
2018-05-04T08:33:50.235Z,93407.48
2018-05-04T08:36:17.789Z,93404.12
2018-05-04T08:38:45.469Z,93420.84
2018-05-04T08:41:13.018Z,93403.33
2018-05-04T08:43:40.583Z,93412.75
2018-05-04T08:46:08.213Z,93413.67
2018-05-04T08:48:35.747Z,93418.90
2018-05-04T08:51:03.324Z,93420.53
2018-05-04T08:53:30.920Z,93408.89
2018-05-04T08:55:58.483Z,93419.23
2018-05-04T08:58:26.031Z,93423.98
2018-05-04T09:00:53.613Z,93411.95
2018-05-04T09:03:21.172Z,93413.29
2018-05-04T09:05:48.743Z,93411.45
2018-05-04T09:08:16.345Z,93427.81
2018-05-04T09:10:43.889Z,93406.09
2018-05-04T09:13:11.453Z,93406.54
2018-05-04T09:15:39.035Z,93404.95
2018-05-04T09:18:06.594Z,93410.48
2018-05-04T09:20:34.166Z,93413.23
2018-05-04T09:23:01.753Z,93414.19
2018-05-04T09:25:29.315Z,93401.61
2018-05-04T09:27:56.852Z,93405.04
2018-05-04T09:30:24.426Z,93406.11
2018-05-04T09:32:52.705Z,93413.72
2018-05-04T09:35:20.256Z,93415.70
2018-05-04T09:37:47.834Z,93401.61
2018-05-04T09:40:15.404Z,93407.36
2018-05-04T09:42:42.953Z,93398.33
2018-05-04T09:45:10.663Z,93406.03
2018-05-04T09:47:38.247Z,93397.35
2018-05-04T09:50:05.822Z,93400.58
2018-05-04T09:52:33.409Z,93392.92
2018-05-04T09:55:00.963Z,93395.84
2018-05-04T09:57:28.508Z,93417.08
2018-05-04T09:59:56.103Z,93414.36
2018-05-04T10:02:23.667Z,93412.31
2018-05-04T10:04:51.227Z,93414.20
2018-05-04T10:07:18.956Z,93403.44
2018-05-04T10:09:46.497Z,93400.09
2018-05-04T10:12:14.046Z,93393.34
2018-05-04T10:14:41.767Z,93398.48
2018-05-04T10:17:09.324Z,93392.16
2018-05-04T10:19:36.881Z,93398.41
2018-05-04T10:22:04.560Z,93388.39
2018-05-04T10:24:32.115Z,93394.64
2018-05-04T10:26:59.661Z,93385.45
2018-05-04T10:29:27.267Z,93396.91
2018-05-04T10:31:54.824Z,93391.34
2018-05-04T10:34:22.392Z,93382.53
2018-05-04T10:36:49.968Z,93385.66
2018-05-04T10:39:17.538Z,93394.52
2018-05-04T10:41:45.100Z,93378.52
2018-05-04T10:44:12.788Z,93388.22
2018-05-04T10:46:40.361Z,93385.47
2018-05-04T10:49:07.911Z,93398.37
2018-05-04T10:51:35.497Z,93395.05
2018-05-04T10:54:03.070Z,93396.68
2018-05-04T10:56:30.667Z,93396.27
2018-05-04T10:58:58.398Z,93403.50
2018-05-04T11:01:25.935Z,93398.27
2018-05-04T11:03:53.480Z,93392.45
2018-05-04T11:06:21.040Z,93393.70
2018-05-04T11:08:48.603Z,93390.42
2018-05-04T11:11:16.162Z,93398.72
2018-05-04T11:13:43.916Z,93386.48
2018-05-04T11:16:11.452Z,93391.89
2018-05-04T11:18:39.021Z,93393.17
2018-05-04T11:21:06.761Z,93388.09
2018-05-04T11:23:34.308Z,93386.30
2018-05-04T11:26:01.922Z,93384.31
2018-05-04T11:28:29.500Z,93383.14
2018-05-04T11:30:57.111Z,93379.91
2018-05-04T11:33:24.640Z,93380.25
2018-05-04T11:35:52.345Z,93379.54
2018-05-04T11:38:19.880Z,93377.29
2018-05-04T11:40:47.444Z,93371.98
2018-05-04T11:43:15.187Z,93377.09
2018-05-04T11:45:42.747Z,93382.50
2018-05-04T11:48:10.309Z,93384.06
2018-05-04T11:50:38.031Z,93377.12
2018-05-04T11:53:05.571Z,93372.22
2018-05-04T11:55:33.120Z,93376.06
2018-05-04T11:58:01.026Z,93373.52
2018-05-04T12:00:28.591Z,93370.30
2018-05-04T12:02:56.138Z,93372.30
2018-05-04T12:05:23.727Z,93368.28
2018-05-04T12:07:51.280Z,93381.98
2018-05-04T12:10:18.826Z,93376.29
2018-05-04T12:12:46.460Z,93369.84
2018-05-04T12:15:14.008Z,93370.45
2018-05-04T12:17:41.704Z,93366.48
2018-05-04T12:20:09.244Z,93362.48
2018-05-04T12:22:36.801Z,93362.66
2018-05-04T12:25:04.382Z,93352.88
2018-05-04T12:27:31.925Z,93358.34
2018-05-04T12:29:59.461Z,93352.05
2018-05-04T12:32:27.228Z,93348.66
2018-05-04T12:34:54.788Z,93346.95
2018-05-04T12:37:22.609Z,93351.42
2018-05-04T12:39:50.176Z,93351.18
2018-05-04T12:42:17.725Z,93344.73
2018-05-04T12:44:45.273Z,93350.80
2018-05-04T12:47:12.983Z,93350.41
2018-05-04T12:49:40.526Z,93347.00
2018-05-04T12:52:08.073Z,93339.98
2018-05-04T12:54:35.648Z,93340.58
2018-05-04T12:57:03.197Z,93338.23
2018-05-04T12:59:30.732Z,93343.63
2018-05-04T13:01:58.309Z,93336.17
2018-05-04T13:04:25.895Z,93331.68
2018-05-04T13:06:53.419Z,93330.53
2018-05-04T13:09:20.992Z,93332.34
2018-05-04T13:11:48.571Z,93335.34
2018-05-04T13:14:16.144Z,93332.13
2018-05-04T13:16:43.756Z,93337.29
2018-05-04T13:19:11.299Z,93342.20
2018-05-04T13:21:38.848Z,93347.72
2018-05-04T13:24:06.568Z,93344.56
2018-05-04T13:26:34.105Z,93352.97
2018-05-04T13:29:01.721Z,93360.56
2018-05-04T13:31:29.250Z,93359.15
2018-05-04T13:33:56.822Z,93363.66
2018-05-04T13:36:24.377Z,93369.77
2018-05-04T13:38:51.949Z,93366.14
2018-05-04T13:41:19.504Z,93367.75
2018-05-04T13:43:47.060Z,93372.38
2018-05-04T13:46:14.635Z,93366.27
2018-05-04T13:48:42.185Z,93367.50
2018-05-04T13:51:09.747Z,93368.98
2018-05-04T13:53:37.481Z,93368.52
2018-05-04T13:56:05.062Z,93370.38
2018-05-04T13:58:32.619Z,93364.80
2018-05-04T14:01:00.549Z,93366.08
2018-05-04T14:03:28.117Z,93369.28
2018-05-04T14:05:55.696Z,93368.52
2018-05-04T14:08:23.408Z,93385.73
2018-05-04T14:10:50.957Z,93394.97
2018-05-04T14:13:18.502Z,93397.40
2018-05-04T14:15:46.101Z,93401.70
2018-05-04T14:18:13.662Z,93404.66
2018-05-04T14:20:41.209Z,93406.78
2018-05-04T14:23:08.784Z,93410.59
2018-05-04T14:25:36.354Z,93406.38
2018-05-04T14:28:03.900Z,93402.02
2018-05-04T14:30:31.486Z,93408.02
2018-05-04T14:32:59.041Z,93411.97
2018-05-04T14:35:26.605Z,93418.62
2018-05-04T14:37:54.195Z,93430.29
2018-05-04T14:40:21.739Z,93432.27
2018-05-04T14:42:49.301Z,93430.13
2018-05-04T14:45:17.219Z,93424.92
2018-05-04T14:47:44.768Z,93416.75
2018-05-04T14:50:12.336Z,93415.34
2018-05-04T14:52:40.010Z,93412.70
2018-05-04T14:55:07.580Z,93416.11
2018-05-04T14:57:35.147Z,93407.55
2018-05-04T15:00:02.737Z,93412.00
2018-05-04T15:02:30.299Z,93414.25
2018-05-04T15:04:57.855Z,93419.80
2018-05-04T15:07:25.434Z,93428.95
2018-05-04T15:09:53.015Z,93433.58
2018-05-04T15:12:20.556Z,93424.56
2018-05-04T15:14:48.150Z,93426.30
2018-05-04T15:17:15.729Z,93417.52
2018-05-04T15:19:43.276Z,93420.19
2018-05-04T15:22:10.887Z,93408.46
2018-05-04T15:24:38.436Z,93412.20
2018-05-04T15:27:05.992Z,93411.14
2018-05-04T15:29:33.644Z,93407.05
2018-05-04T15:32:01.193Z,93402.38
2018-05-04T15:34:28.775Z,93398.56
2018-05-04T15:36:56.513Z,93392.69
2018-05-04T15:39:24.065Z,93397.77
2018-05-04T15:41:51.605Z,93386.38
2018-05-04T15:44:19.168Z,93380.16
2018-05-04T15:46:46.731Z,93385.75
2018-05-04T15:49:18.720Z,93373.12
2018-05-04T15:52:04.237Z,93377.67
2018-05-04T15:54:31.783Z,93378.65
2018-05-04T15:56:59.628Z,93376.06
2018-05-04T15:59:27.325Z,93370.06
2018-05-04T16:01:54.870Z,93377.29
2018-05-04T16:04:22.416Z,93387.41
2018-05-04T16:06:50.192Z,93379.83
2018-05-04T16:09:17.737Z,93375.27
2018-05-04T16:11:45.294Z,93380.81
2018-05-04T16:14:12.884Z,93378.25
2018-05-04T16:16:40.443Z,93368.92
2018-05-04T16:19:07.996Z,93362.03
2018-05-04T16:21:35.601Z,93365.53
2018-05-04T16:24:03.145Z,93366.50
2018-05-04T16:26:30.693Z,93369.59
2018-05-04T16:28:58.304Z,93355.84
2018-05-04T16:31:25.869Z,93350.25
2018-05-04T16:33:53.419Z,93338.41
2018-05-04T16:36:21.123Z,93337.76
2018-05-04T16:38:48.705Z,93335.07
2018-05-04T16:41:16.262Z,93363.36
2018-05-04T16:43:43.981Z,93373.33
2018-05-04T16:46:17.102Z,93377.51
2018-05-04T16:48:50.155Z,93387.80
2018-05-04T16:51:17.745Z,93388.63
2018-05-04T16:53:45.321Z,93404.31
2018-05-04T16:56:12.910Z,93411.97
2018-05-04T16:58:40.486Z,93404.95
2018-05-04T17:01:08.035Z,93406.05
2018-05-04T17:03:35.620Z,93414.78
2018-05-04T17:06:03.203Z,93416.73
2018-05-04T17:08:30.777Z,93420.34
2018-05-04T17:10:58.371Z,93429.45
2018-05-04T17:13:25.947Z,93426.88
2018-05-04T17:15:53.561Z,93437.95
2018-05-04T17:18:21.114Z,93442.38
2018-05-04T17:20:48.681Z,93441.97
2018-05-04T17:23:16.241Z,93440.91
2018-05-04T17:25:43.864Z,93434.72
2018-05-04T17:28:11.410Z,93446.03
2018-05-04T17:30:38.959Z,93436.28
2018-05-04T17:33:06.870Z,93438.70
2018-05-04T17:35:34.419Z,93431.20
2018-05-04T17:38:01.971Z,93432.30
2018-05-04T17:40:29.792Z,93422.92
2018-05-04T17:42:57.904Z,93435.05
2018-05-04T17:45:25.482Z,93438.37
2018-05-04T17:47:53.061Z,93436.28
2018-05-04T17:50:20.613Z,93431.89
2018-05-04T17:52:48.152Z,93426.69
2018-05-04T17:55:15.724Z,93433.20
2018-05-04T17:57:43.288Z,93440.00
2018-05-04T18:00:10.831Z,93440.42
2018-05-04T18:02:38.533Z,93441.03
2018-05-04T18:05:06.110Z,93446.51
2018-05-04T18:07:33.651Z,93449.34
2018-05-04T18:10:01.446Z,93450.25
2018-05-04T18:12:29.031Z,93454.27
2018-05-04T18:14:56.592Z,93451.18
2018-05-04T18:17:24.342Z,93451.38
2018-05-04T18:19:51.962Z,93450.48
2018-05-04T18:22:19.547Z,93448.76
2018-05-04T18:24:47.504Z,93456.50
2018-05-04T18:27:15.086Z,93458.17
2018-05-04T18:29:42.636Z,93456.77
2018-05-04T18:32:10.377Z,93459.45
2018-05-04T18:34:37.946Z,93462.02
2018-05-04T18:37:05.537Z,93462.02
2018-05-04T18:39:33.233Z,93471.98
2018-05-04T18:42:00.804Z,93471.98
2018-05-04T18:44:28.367Z,93477.27
2018-05-04T18:46:56.119Z,93479.52
2018-05-04T18:49:23.672Z,93484.13
2018-05-04T18:51:51.229Z,93487.65
2018-05-04T18:54:18.954Z,93487.62
2018-05-04T18:56:46.614Z,93487.97
2018-05-04T18:59:14.187Z,93487.09
2018-05-04T19:01:41.956Z,93496.66
2018-05-04T19:04:09.568Z,93498.94
2018-05-04T19:06:37.168Z,93502.85
2018-05-04T19:09:04.983Z,93503.94
2018-05-04T19:11:32.598Z,93505.89
2018-05-04T19:14:00.138Z,93509.33
2018-05-04T19:16:27.709Z,93502.91
2018-05-04T19:18:55.268Z,93512.78
2018-05-04T19:21:22.821Z,93516.09
2018-05-04T19:23:50.411Z,93519.88
2018-05-04T19:26:18.007Z,93516.56
2018-05-04T19:28:45.555Z,93521.72
2018-05-04T19:31:13.196Z,93523.10
2018-05-04T19:33:40.739Z,93525.56
2018-05-04T19:36:09.253Z,93518.92
2018-05-04T19:38:37.178Z,93519.21
2018-05-04T19:41:04.743Z,93517.50
2018-05-04T19:43:32.325Z,93511.56
2018-05-04T19:46:00.231Z,93510.62
2018-05-04T19:48:27.810Z,93508.13
2018-05-04T19:50:55.386Z,93506.35
2018-05-04T19:53:22.962Z,93511.73
2018-05-04T19:55:50.511Z,93506.22
2018-05-04T19:58:18.071Z,93504.16
2018-05-04T20:00:46.029Z,93496.48
2018-05-04T20:03:13.584Z,93500.41
2018-05-04T20:05:41.119Z,93492.23
2018-05-04T20:08:08.856Z,93498.06
2018-05-04T20:10:36.436Z,93502.05
2018-05-04T20:13:04.012Z,93495.70
2018-05-04T20:15:31.603Z,93498.39
2018-05-04T20:17:59.148Z,93497.00
2018-05-04T20:20:26.753Z,93498.98
2018-05-04T20:22:54.453Z,93490.78
2018-05-04T20:25:22.004Z,93495.12
2018-05-04T20:27:49.536Z,93494.25
2018-05-04T20:30:17.096Z,93493.19
2018-05-04T20:32:44.632Z,93492.80
2018-05-04T20:35:12.191Z,93491.30
2018-05-04T20:37:39.817Z,93488.41
2018-05-04T20:40:07.391Z,93491.64
2018-05-04T20:42:34.982Z,93489.66
2018-05-04T20:45:02.563Z,93481.34
2018-05-04T20:47:30.115Z,93484.34
2018-05-04T20:49:57.705Z,93481.11
2018-05-04T20:52:25.273Z,93482.66
2018-05-04T20:54:52.852Z,93481.95
2018-05-04T20:57:20.416Z,93480.05
2018-05-04T20:59:48.080Z,93476.77
2018-05-04T21:02:15.614Z,93482.79
2018-05-04T21:04:43.181Z,93481.39
2018-05-04T21:07:10.773Z,93478.26
2018-05-04T21:09:38.353Z,93482.14
2018-05-04T21:12:05.895Z,93483.05
2018-05-04T21:14:33.694Z,93482.36
2018-05-04T21:17:01.245Z,93485.25
2018-05-04T21:19:28.788Z,93485.88
2018-05-04T21:21:56.359Z,93490.56
2018-05-04T21:24:23.910Z,93487.44
2018-05-04T21:26:51.455Z,93492.81
2018-05-04T21:29:19.039Z,93493.34
2018-05-04T21:31:46.599Z,93493.98
2018-05-04T21:34:14.142Z,93496.40
2018-05-04T21:36:41.888Z,93495.77
2018-05-04T21:39:09.458Z,93495.23
2018-05-04T21:41:37.022Z,93499.75
2018-05-04T21:44:04.742Z,93494.70
2018-05-04T21:46:32.276Z,93503.45
2018-05-04T21:48:59.826Z,93505.36
2018-05-04T21:51:27.425Z,93505.13
2018-05-04T21:53:54.974Z,93507.86
2018-05-04T21:56:22.503Z,93510.46
2018-05-04T21:58:50.082Z,93508.68
2018-05-04T22:01:17.636Z,93506.82
2018-05-04T22:03:45.164Z,93503.17
2018-05-04T22:06:12.737Z,93502.74
2018-05-04T22:08:40.272Z,93508.53
2018-05-04T22:11:07.824Z,93503.45
2018-05-04T22:13:35.373Z,93513.78
2018-05-04T22:16:02.935Z,93513.09
2018-05-04T22:18:30.521Z,93507.94
2018-05-04T22:20:58.113Z,93520.75
2018-05-04T22:23:25.660Z,93512.22
2018-05-04T22:25:53.245Z,93517.30
2018-05-04T22:28:20.789Z,93517.91
2018-05-04T22:30:48.340Z,93514.42
2018-05-04T22:33:15.903Z,93517.10
2018-05-04T22:35:43.469Z,93515.58
2018-05-04T22:38:11.020Z,93511.93
2018-05-04T22:40:38.615Z,93508.27
2018-05-04T22:43:06.208Z,93520.44
2018-05-04T22:45:33.769Z,93515.18
2018-05-04T22:48:01.460Z,93514.39
2018-05-04T22:50:29.021Z,93518.11
2018-05-04T22:52:56.568Z,93519.89
2018-05-04T22:55:24.241Z,93526.21
2018-05-04T22:57:51.779Z,93524.69
2018-05-04T23:00:19.368Z,93525.98
2018-05-04T23:02:47.450Z,93525.61
2018-05-04T23:05:14.996Z,93533.91
2018-05-04T23:07:42.570Z,93535.41
2018-05-04T23:10:10.322Z,93525.56
2018-05-04T23:12:37.874Z,93522.59
2018-05-04T23:15:05.416Z,93519.60
2018-05-04T23:17:33.186Z,93519.80
2018-05-04T23:20:00.746Z,93511.75
2018-05-04T23:22:29.256Z,93510.19
2018-05-04T23:24:56.991Z,93509.33
2018-05-04T23:27:24.547Z,93513.89
2018-05-04T23:29:52.118Z,93519.64
2018-05-04T23:32:19.684Z,93518.27
2018-05-04T23:34:47.265Z,93526.81
2018-05-04T23:37:14.803Z,93527.73
2018-05-04T23:39:43.052Z,93529.27
2018-05-04T23:42:10.602Z,93528.38
2018-05-04T23:44:38.142Z,93533.84
2018-05-04T23:47:05.745Z,93527.05
2018-05-04T23:49:33.296Z,93530.07
2018-05-04T23:52:00.849Z,93520.70
2018-05-04T23:54:28.420Z,93523.72
2018-05-04T23:56:55.971Z,93519.42
2018-05-04T23:59:23.524Z,93519.64
